Boonsboro, MD (21713)

7:53 PM EDT on September 02, 2015 (GMT -0400)
APRSWXNET | | Change Station
CLOSE
Current Station
Personal Weather Station
Location: Boonsboro, MD
Elevation: 564 ft
Nearby Weather Stations

Elev 564 ft 39.53 °N, 77.63 °W | Updated 30 minutes ago

Partly Cloudy
Partly Cloudy
78 °F
Feels Like 80 °F
N
0
Wind Variable Wind from NE
Gusts 2.0 mph

Today
High -- | Low -- °F
--% Chance of Precip.
Yesterday
High -- | Low -- °F
Precip. -- in
6:39 AM 7:40 PM
Waning Gibbous, 76% visible
Pressure 29.98 in
Visibility 8.0 miles
Clouds Clear
Heat Index 80 °F
Dew Point 71 °F
Humidity 78%
Rainfall in
Snow Depth Not available.
UV 0 out of 12
Pollen 9.40 out of 12
Air Quality Not available.
Flu Activity Not available.
METAR KHGR 022253Z 00000KT 8SM CLR 26/19 A2996 RMK AO2 SLP150 T02560194
Pressure 29.98 in
Visibility 8.0 miles
Clouds Clear
Heat Index 80 °F
Dew Point 71 °F
Humidity 78%
Rainfall in
Snow Depth Not available.
UV 0 out of 12
Pollen 9.40 out of 12
Air Quality Not available.
Flu Activity Not available.
METAR KHGR 022253Z 00000KT 8SM CLR 26/19 A2996 RMK AO2 SLP150 T02560194

10-Day Weather Forecast

×

Almanac

Astronomy

Sep. 02, 2015 Rise Set
Actual Time
Civil Twilight
Nautical Twilight
Astronomical Twilight
Moon
Length of Visible Light
Length of Day
Tomorrow will be .
, % of the Moon is Illuminated

Today's Extremes

State Highs State Lows

Community

WunderPhotos

Upload Photos

1,851,841 photos uploaded!

WunderBlogs® & News

Nearby

Air Quality

  Air Quality AQ Index Pollutant
Not available.

Snow Depth

Station Depth Elevation

Earthquake Activity

City Distance Mag. Time & Date
Minimum magnitude displayed is 2.5.

Coastal Water Temperatures

Place Temperature

Stations

Nearby Weather Stations

Station Location Temp. Windchill Dew Point Humidity Wind Precip. Elev Updated Type